sensor_id;sensor_type;location;lat;lon;timestamp;P1;durP1;ratioP1;P2;durP2;ratioP2
77726;SDS011;68312;53.502;10.030;2023-10-08T00:00:46;8.75;;;2.13;;
77726;SDS011;68312;53.502;10.030;2023-10-08T00:03:22;9.98;;;2.15;;
77726;SDS011;68312;53.502;10.030;2023-10-08T00:05:52;8.68;;;2.00;;
77726;SDS011;68312;53.502;10.030;2023-10-08T00:08:18;7.82;;;2.10;;
77726;SDS011;68312;53.502;10.030;2023-10-08T00:10:44;7.57;;;2.10;;
77726;SDS011;68312;53.502;10.030;2023-10-08T00:13:10;7.32;;;1.63;;
77726;SDS011;68312;53.502;10.030;2023-10-08T00:15:40;8.07;;;1.77;;
77726;SDS011;68312;53.502;10.030;2023-10-08T00:18:18;6.93;;;1.65;;
77726;SDS011;68312;53.502;10.030;2023-10-08T00:20:48;7.45;;;2.00;;
77726;SDS011;68312;53.502;10.030;2023-10-08T00:26:00;3.78;;;1.73;;
77726;SDS011;68312;53.502;10.030;2023-10-08T00:28:29;7.05;;;1.90;;
77726;SDS011;68312;53.502;10.030;2023-10-08T00:30:57;9.57;;;1.85;;
77726;SDS011;68312;53.502;10.030;2023-10-08T00:33:30;5.38;;;1.40;;
77726;SDS011;68312;53.502;10.030;2023-10-08T00:35:56;4.13;;;1.38;;
77726;SDS011;68312;53.502;10.030;2023-10-08T00:38:21;7.10;;;1.60;;
77726;SDS011;68312;53.502;10.030;2023-10-08T00:40:49;6.63;;;1.85;;
77726;SDS011;68312;53.502;10.030;2023-10-08T00:43:30;6.68;;;1.75;;
77726;SDS011;68312;53.502;10.030;2023-10-08T00:46:01;7.50;;;1.52;;
77726;SDS011;68312;53.502;10.030;2023-10-08T00:48:42;8.65;;;1.83;;
77726;SDS011;68312;53.502;10.030;2023-10-08T00:51:09;6.93;;;1.52;;
77726;SDS011;68312;53.502;10.030;2023-10-08T00:54:20;7.25;;;1.50;;
77726;SDS011;68312;53.502;10.030;2023-10-08T00:56:45;7.45;;;2.00;;
77726;SDS011;68312;53.502;10.030;2023-10-08T00:59:18;8.13;;;1.60;;
77726;SDS011;68312;53.502;10.030;2023-10-08T01:01:47;6.85;;;1.58;;
77726;SDS011;68312;53.502;10.030;2023-10-08T01:04:17;6.53;;;1.65;;
77726;SDS011;68312;53.502;10.030;2023-10-08T01:06:48;5.47;;;1.80;;
77726;SDS011;68312;53.502;10.030;2023-10-08T01:09:21;6.82;;;1.30;;
77726;SDS011;68312;53.502;10.030;2023-10-08T01:12:10;3.72;;;1.38;;
77726;SDS011;68312;53.502;10.030;2023-10-08T01:15:01;4.90;;;1.40;;
77726;SDS011;68312;53.502;10.030;2023-10-08T01:17:48;4.85;;;1.27;;
77726;SDS011;68312;53.502;10.030;2023-10-08T01:20:23;4.55;;;1.35;;
77726;SDS011;68312;53.502;10.030;2023-10-08T01:23:00;8.02;;;1.33;;
77726;SDS011;68312;53.502;10.030;2023-10-08T01:25:44;6.43;;;1.30;;
77726;SDS011;68312;53.502;10.030;2023-10-08T01:28:28;7.93;;;1.13;;
77726;SDS011;68312;53.502;10.030;2023-10-08T01:30:59;6.85;;;1.38;;
77726;SDS011;68312;53.502;10.030;2023-10-08T01:33:25;5.97;;;1.30;;
77726;SDS011;68312;53.502;10.030;2023-10-08T01:36:02;7.78;;;1.85;;
77726;SDS011;68312;53.502;10.030;2023-10-08T01:38:29;7.32;;;1.25;;
77726;SDS011;68312;53.502;10.030;2023-10-08T01:40:57;8.00;;;1.55;;
77726;SDS011;68312;53.502;10.030;2023-10-08T01:43:28;6.75;;;1.45;;
77726;SDS011;68312;53.502;10.030;2023-10-08T01:45:54;8.18;;;1.58;;
77726;SDS011;68312;53.502;10.030;2023-10-08T01:48:21;6.35;;;1.23;;
77726;SDS011;68312;53.502;10.030;2023-10-08T01:51:02;10.13;;;1.27;;
77726;SDS011;68312;53.502;10.030;2023-10-08T01:53:33;8.85;;;1.60;;
77726;SDS011;68312;53.502;10.030;2023-10-08T01:56:01;3.78;;;1.20;;
77726;SDS011;68312;53.502;10.030;2023-10-08T01:58:29;13.52;;;1.77;;
77726;SDS011;68312;53.502;10.030;2023-10-08T02:00:55;5.85;;;1.02;;
77726;SDS011;68312;53.502;10.030;2023-10-08T02:03:24;6.53;;;1.95;;
77726;SDS011;68312;53.502;10.030;2023-10-08T02:05:49;4.90;;;1.38;;
77726;SDS011;68312;53.502;10.030;2023-10-08T02:08:18;5.28;;;1.38;;
77726;SDS011;68312;53.502;10.030;2023-10-08T02:10:45;7.25;;;1.27;;
77726;SDS011;68312;53.502;10.030;2023-10-08T02:13:12;5.43;;;1.38;;
77726;SDS011;68312;53.502;10.030;2023-10-08T02:15:48;15.43;;;1.88;;
77726;SDS011;68312;53.502;10.030;2023-10-08T02:18:19;4.53;;;1.27;;
77726;SDS011;68312;53.502;10.030;2023-10-08T02:20:45;4.90;;;1.23;;
77726;SDS011;68312;53.502;10.030;2023-10-08T02:23:10;3.20;;;1.00;;
77726;SDS011;68312;53.502;10.030;2023-10-08T02:25:37;7.30;;;1.23;;
77726;SDS011;68312;53.502;10.030;2023-10-08T02:28:06;5.35;;;0.90;;
77726;SDS011;68312;53.502;10.030;2023-10-08T02:30:34;4.57;;;1.05;;
77726;SDS011;68312;53.502;10.030;2023-10-08T02:33:01;5.72;;;1.42;;
77726;SDS011;68312;53.502;10.030;2023-10-08T02:35:27;6.63;;;1.35;;
77726;SDS011;68312;53.502;10.030;2023-10-08T02:37:52;2.47;;;0.98;;
77726;SDS011;68312;53.502;10.030;2023-10-08T02:40:19;5.30;;;1.30;;
77726;SDS011;68312;53.502;10.030;2023-10-08T02:42:51;5.28;;;1.17;;
77726;SDS011;68312;53.502;10.030;2023-10-08T02:45:24;5.25;;;1.20;;
77726;SDS011;68312;53.502;10.030;2023-10-08T02:47:51;3.55;;;1.20;;
77726;SDS011;68312;53.502;10.030;2023-10-08T02:50:18;3.45;;;0.98;;
77726;SDS011;68312;53.502;10.030;2023-10-08T02:52:47;7.75;;;1.38;;
77726;SDS011;68312;53.502;10.030;2023-10-08T02:55:15;5.43;;;1.10;;
77726;SDS011;68312;53.502;10.030;2023-10-08T02:57:53;4.05;;;1.08;;
77726;SDS011;68312;53.502;10.030;2023-10-08T03:00:21;4.47;;;0.80;;
77726;SDS011;68312;53.502;10.030;2023-10-08T03:02:46;5.85;;;0.95;;
77726;SDS011;68312;53.502;10.030;2023-10-08T03:05:12;2.50;;;0.85;;
77726;SDS011;68312;53.502;10.030;2023-10-08T03:07:42;5.93;;;1.10;;
77726;SDS011;68312;53.502;10.030;2023-10-08T03:10:09;8.55;;;1.10;;
77726;SDS011;68312;53.502;10.030;2023-10-08T03:12:45;2.03;;;0.70;;
77726;SDS011;68312;53.502;10.030;2023-10-08T03:15:12;1.77;;;0.60;;
77726;SDS011;68312;53.502;10.030;2023-10-08T03:17:40;3.50;;;0.93;;
77726;SDS011;68312;53.502;10.030;2023-10-08T03:20:19;4.35;;;0.70;;
77726;SDS011;68312;53.502;10.030;2023-10-08T03:23:04;5.97;;;1.00;;
77726;SDS011;68312;53.502;10.030;2023-10-08T03:25:37;3.28;;;0.77;;
77726;SDS011;68312;53.502;10.030;2023-10-08T03:28:07;5.25;;;0.90;;
77726;SDS011;68312;53.502;10.030;2023-10-08T03:30:38;2.65;;;0.80;;
77726;SDS011;68312;53.502;10.030;2023-10-08T03:33:13;2.75;;;0.88;;
77726;SDS011;68312;53.502;10.030;2023-10-08T03:35:47;4.03;;;0.80;;
77726;SDS011;68312;53.502;10.030;2023-10-08T03:43:56;2.10;;;0.80;;
77726;SDS011;68312;53.502;10.030;2023-10-08T03:46:30;4.50;;;0.90;;
77726;SDS011;68312;53.502;10.030;2023-10-08T03:48:57;2.38;;;0.75;;
77726;SDS011;68312;53.502;10.030;2023-10-08T03:51:29;5.35;;;1.00;;
77726;SDS011;68312;53.502;10.030;2023-10-08T03:54:00;2.60;;;0.60;;
77726;SDS011;68312;53.502;10.030;2023-10-08T03:56:34;4.40;;;1.00;;
77726;SDS011;68312;53.502;10.030;2023-10-08T03:59:04;3.28;;;0.93;;
77726;SDS011;68312;53.502;10.030;2023-10-08T04:01:40;3.13;;;1.23;;
77726;SDS011;68312;53.502;10.030;2023-10-08T04:04:07;1.48;;;0.70;;
77726;SDS011;68312;53.502;10.030;2023-10-08T04:06:39;4.38;;;1.00;;
77726;SDS011;68312;53.502;10.030;2023-10-08T04:09:13;4.22;;;0.80;;
77726;SDS011;68312;53.502;10.030;2023-10-08T04:11:45;1.65;;;0.70;;
77726;SDS011;68312;53.502;10.030;2023-10-08T04:14:14;4.95;;;1.05;;
77726;SDS011;68312;53.502;10.030;2023-10-08T04:16:44;3.58;;;0.80;;
77726;SDS011;68312;53.502;10.030;2023-10-08T04:19:10;4.03;;;1.30;;
77726;SDS011;68312;53.502;10.030;2023-10-08T04:21:37;3.22;;;0.77;;
77726;SDS011;68312;53.502;10.030;2023-10-08T04:24:06;3.78;;;1.00;;
77726;SDS011;68312;53.502;10.030;2023-10-08T04:26:33;6.45;;;0.93;;
77726;SDS011;68312;53.502;10.030;2023-10-08T04:29:00;4.40;;;0.70;;
77726;SDS011;68312;53.502;10.030;2023-10-08T04:31:32;7.80;;;0.80;;
77726;SDS011;68312;53.502;10.030;2023-10-08T04:34:05;3.47;;;1.20;;
77726;SDS011;68312;53.502;10.030;2023-10-08T04:36:36;3.90;;;1.08;;
77726;SDS011;68312;53.502;10.030;2023-10-08T04:39:05;3.60;;;0.80;;
77726;SDS011;68312;53.502;10.030;2023-10-08T04:41:38;2.78;;;0.88;;
77726;SDS011;68312;53.502;10.030;2023-10-08T04:44:08;4.93;;;0.90;;
77726;SDS011;68312;53.502;10.030;2023-10-08T04:46:43;6.00;;;0.80;;
77726;SDS011;68312;53.502;10.030;2023-10-08T04:49:15;6.82;;;0.95;;
77726;SDS011;68312;53.502;10.030;2023-10-08T04:52:04;3.50;;;0.90;;
77726;SDS011;68312;53.502;10.030;2023-10-08T04:54:39;2.72;;;0.70;;
77726;SDS011;68312;53.502;10.030;2023-10-08T04:57:11;3.72;;;0.90;;
77726;SDS011;68312;53.502;10.030;2023-10-08T04:59:41;2.55;;;0.70;;
77726;SDS011;68312;53.502;10.030;2023-10-08T05:02:08;3.22;;;0.65;;
77726;SDS011;68312;53.502;10.030;2023-10-08T05:05:00;3.13;;;0.98;;
77726;SDS011;68312;53.502;10.030;2023-10-08T05:07:35;4.20;;;0.80;;
77726;SDS011;68312;53.502;10.030;2023-10-08T05:10:09;3.90;;;1.17;;
77726;SDS011;68312;53.502;10.030;2023-10-08T05:12:51;2.28;;;0.65;;
77726;SDS011;68312;53.502;10.030;2023-10-08T05:15:33;1.48;;;0.63;;
77726;SDS011;68312;53.502;10.030;2023-10-08T05:17:59;4.07;;;1.10;;
77726;SDS011;68312;53.502;10.030;2023-10-08T05:20:38;4.32;;;0.95;;
77726;SDS011;68312;53.502;10.030;2023-10-08T05:23:14;3.95;;;0.90;;
77726;SDS011;68312;53.502;10.030;2023-10-08T05:25:54;5.95;;;1.35;;
77726;SDS011;68312;53.502;10.030;2023-10-08T05:28:37;2.88;;;0.98;;
77726;SDS011;68312;53.502;10.030;2023-10-08T05:31:22;2.13;;;0.80;;
77726;SDS011;68312;53.502;10.030;2023-10-08T05:37:46;3.00;;;1.60;;
77726;SDS011;68312;53.502;10.030;2023-10-08T05:40:17;3.83;;;0.90;;
77726;SDS011;68312;53.502;10.030;2023-10-08T05:43:08;4.22;;;1.10;;
77726;SDS011;68312;53.502;10.030;2023-10-08T05:45:48;3.08;;;1.10;;
77726;SDS011;68312;53.502;10.030;2023-10-08T05:48:33;6.00;;;1.33;;
77726;SDS011;68312;53.502;10.030;2023-10-08T05:51:10;3.10;;;1.33;;
77726;SDS011;68312;53.502;10.030;2023-10-08T05:53:48;3.10;;;1.67;;
77726;SDS011;68312;53.502;10.030;2023-10-08T05:56:14;6.15;;;1.30;;
77726;SDS011;68312;53.502;10.030;2023-10-08T05:58:53;4.72;;;1.58;;
77726;SDS011;68312;53.502;10.030;2023-10-08T06:01:39;3.58;;;1.25;;
77726;SDS011;68312;53.502;10.030;2023-10-08T06:04:06;4.60;;;1.38;;
77726;SDS011;68312;53.502;10.030;2023-10-08T06:06:50;6.60;;;1.40;;
77726;SDS011;68312;53.502;10.030;2023-10-08T06:09:36;2.88;;;1.30;;
77726;SDS011;68312;53.502;10.030;2023-10-08T06:12:02;2.78;;;1.23;;
77726;SDS011;68312;53.502;10.030;2023-10-08T06:14:45;3.80;;;0.90;;
77726;SDS011;68312;53.502;10.030;2023-10-08T06:17:29;2.63;;;0.85;;
77726;SDS011;68312;53.502;10.030;2023-10-08T06:20:20;4.38;;;1.00;;
77726;SDS011;68312;53.502;10.030;2023-10-08T06:22:50;5.30;;;1.50;;
77726;SDS011;68312;53.502;10.030;2023-10-08T06:25:19;4.10;;;1.10;;
77726;SDS011;68312;53.502;10.030;2023-10-08T06:27:49;4.25;;;0.98;;
77726;SDS011;68312;53.502;10.030;2023-10-08T06:30:22;3.38;;;0.90;;
77726;SDS011;68312;53.502;10.030;2023-10-08T06:32:53;2.08;;;0.90;;
77726;SDS011;68312;53.502;10.030;2023-10-08T06:35:20;1.50;;;0.60;;
77726;SDS011;68312;53.502;10.030;2023-10-08T06:37:50;2.25;;;0.77;;
77726;SDS011;68312;53.502;10.030;2023-10-08T06:40:19;2.00;;;0.90;;
77726;SDS011;68312;53.502;10.030;2023-10-08T06:43:01;3.00;;;0.80;;
77726;SDS011;68312;53.502;10.030;2023-10-08T06:45:45;3.45;;;1.30;;
77726;SDS011;68312;53.502;10.030;2023-10-08T06:48:11;2.42;;;1.00;;
77726;SDS011;68312;53.502;10.030;2023-10-08T06:50:45;4.30;;;1.42;;
77726;SDS011;68312;53.502;10.030;2023-10-08T06:53:17;3.00;;;0.80;;
77726;SDS011;68312;53.502;10.030;2023-10-08T06:55:46;3.80;;;1.35;;
77726;SDS011;68312;53.502;10.030;2023-10-08T06:58:22;3.22;;;0.80;;
77726;SDS011;68312;53.502;10.030;2023-10-08T07:00:51;3.80;;;0.90;;
77726;SDS011;68312;53.502;10.030;2023-10-08T07:06:58;1.98;;;0.80;;
77726;SDS011;68312;53.502;10.030;2023-10-08T07:09:25;3.80;;;1.00;;
77726;SDS011;68312;53.502;10.030;2023-10-08T07:11:51;3.30;;;0.63;;
77726;SDS011;68312;53.502;10.030;2023-10-08T07:14:28;4.82;;;0.80;;
77726;SDS011;68312;53.502;10.030;2023-10-08T07:16:54;4.20;;;1.00;;
77726;SDS011;68312;53.502;10.030;2023-10-08T07:19:24;3.00;;;1.00;;
77726;SDS011;68312;53.502;10.030;2023-10-08T07:22:02;7.40;;;1.20;;
77726;SDS011;68312;53.502;10.030;2023-10-08T07:24:43;4.68;;;1.15;;
77726;SDS011;68312;53.502;10.030;2023-10-08T07:27:11;3.15;;;1.00;;
77726;SDS011;68312;53.502;10.030;2023-10-08T07:29:36;5.00;;;0.73;;
77726;SDS011;68312;53.502;10.030;2023-10-08T07:32:02;2.33;;;0.60;;
77726;SDS011;68312;53.502;10.030;2023-10-08T07:34:35;4.28;;;0.80;;
77726;SDS011;68312;53.502;10.030;2023-10-08T07:37:04;4.15;;;0.60;;
77726;SDS011;68312;53.502;10.030;2023-10-08T07:39:36;2.83;;;0.70;;
77726;SDS011;68312;53.502;10.030;2023-10-08T07:42:11;3.72;;;0.60;;
77726;SDS011;68312;53.502;10.030;2023-10-08T07:44:37;4.45;;;0.55;;
77726;SDS011;68312;53.502;10.030;2023-10-08T07:47:04;4.50;;;1.10;;
77726;SDS011;68312;53.502;10.030;2023-10-08T07:53:16;2.80;;;0.63;;
77726;SDS011;68312;53.502;10.030;2023-10-08T07:55:45;4.05;;;0.55;;
77726;SDS011;68312;53.502;10.030;2023-10-08T07:58:14;6.30;;;0.60;;
77726;SDS011;68312;53.502;10.030;2023-10-08T08:00:41;3.08;;;0.85;;
77726;SDS011;68312;53.502;10.030;2023-10-08T08:03:07;6.10;;;0.82;;
77726;SDS011;68312;53.502;10.030;2023-10-08T08:05:32;1.83;;;0.57;;
77726;SDS011;68312;53.502;10.030;2023-10-08T08:07:59;3.97;;;0.65;;
77726;SDS011;68312;53.502;10.030;2023-10-08T08:10:30;6.28;;;1.00;;
77726;SDS011;68312;53.502;10.030;2023-10-08T08:13:04;4.72;;;0.60;;
77726;SDS011;68312;53.502;10.030;2023-10-08T08:15:33;5.45;;;0.50;;
77726;SDS011;68312;53.502;10.030;2023-10-08T08:18:01;3.35;;;0.60;;
77726;SDS011;68312;53.502;10.030;2023-10-08T08:20:30;3.67;;;0.50;;
77726;SDS011;68312;53.502;10.030;2023-10-08T08:23:08;3.85;;;0.77;;
77726;SDS011;68312;53.502;10.030;2023-10-08T08:25:41;5.38;;;0.80;;
77726;SDS011;68312;53.502;10.030;2023-10-08T08:28:14;2.88;;;0.60;;
77726;SDS011;68312;53.502;10.030;2023-10-08T08:30:43;6.07;;;0.90;;
77726;SDS011;68312;53.502;10.030;2023-10-08T08:33:12;3.65;;;0.75;;
77726;SDS011;68312;53.502;10.030;2023-10-08T08:35:42;2.88;;;0.80;;
77726;SDS011;68312;53.502;10.030;2023-10-08T08:38:07;2.75;;;0.75;;
77726;SDS011;68312;53.502;10.030;2023-10-08T08:40:33;3.65;;;0.60;;
77726;SDS011;68312;53.502;10.030;2023-10-08T08:42:59;2.25;;;0.52;;
77726;SDS011;68312;53.502;10.030;2023-10-08T08:45:28;2.42;;;0.57;;
77726;SDS011;68312;53.502;10.030;2023-10-08T08:47:58;1.80;;;0.60;;
77726;SDS011;68312;53.502;10.030;2023-10-08T08:50:25;5.00;;;0.90;;
77726;SDS011;68312;53.502;10.030;2023-10-08T08:52:54;3.35;;;0.70;;
77726;SDS011;68312;53.502;10.030;2023-10-08T08:55:19;2.17;;;0.50;;
77726;SDS011;68312;53.502;10.030;2023-10-08T08:57:49;4.00;;;0.70;;
77726;SDS011;68312;53.502;10.030;2023-10-08T09:00:18;4.93;;;1.57;;
77726;SDS011;68312;53.502;10.030;2023-10-08T09:02:45;4.43;;;0.52;;
77726;SDS011;68312;53.502;10.030;2023-10-08T09:05:12;2.47;;;0.68;;
77726;SDS011;68312;53.502;10.030;2023-10-08T09:07:52;5.55;;;0.90;;
77726;SDS011;68312;53.502;10.030;2023-10-08T09:10:29;4.30;;;0.60;;
77726;SDS011;68312;53.502;10.030;2023-10-08T09:13:02;5.13;;;0.65;;
77726;SDS011;68312;53.502;10.030;2023-10-08T09:15:34;4.82;;;0.60;;
77726;SDS011;68312;53.502;10.030;2023-10-08T09:18:00;6.15;;;0.77;;
77726;SDS011;68312;53.502;10.030;2023-10-08T09:20:30;2.50;;;1.02;;
77726;SDS011;68312;53.502;10.030;2023-10-08T09:23:06;2.30;;;0.65;;
77726;SDS011;68312;53.502;10.030;2023-10-08T09:25:37;4.03;;;0.47;;
77726;SDS011;68312;53.502;10.030;2023-10-08T09:28:06;3.17;;;0.60;;
77726;SDS011;68312;53.502;10.030;2023-10-08T09:30:38;2.97;;;0.68;;
77726;SDS011;68312;53.502;10.030;2023-10-08T09:33:08;2.08;;;0.47;;
77726;SDS011;68312;53.502;10.030;2023-10-08T09:35:37;1.98;;;0.52;;
77726;SDS011;68312;53.502;10.030;2023-10-08T09:38:04;1.48;;;0.55;;
77726;SDS011;68312;53.502;10.030;2023-10-08T09:40:35;2.47;;;0.55;;
77726;SDS011;68312;53.502;10.030;2023-10-08T09:43:04;4.13;;;1.08;;
77726;SDS011;68312;53.502;10.030;2023-10-08T09:45:30;2.80;;;0.60;;
77726;SDS011;68312;53.502;10.030;2023-10-08T09:47:56;4.00;;;0.63;;
77726;SDS011;68312;53.502;10.030;2023-10-08T09:50:27;2.80;;;0.50;;
77726;SDS011;68312;53.502;10.030;2023-10-08T09:53:02;1.83;;;0.47;;
77726;SDS011;68312;53.502;10.030;2023-10-08T09:55:59;5.55;;;0.40;;
77726;SDS011;68312;53.502;10.030;2023-10-08T09:58:29;3.80;;;0.50;;
77726;SDS011;68312;53.502;10.030;2023-10-08T10:00:55;1.75;;;0.45;;
77726;SDS011;68312;53.502;10.030;2023-10-08T10:03:23;2.28;;;0.70;;
77726;SDS011;68312;53.502;10.030;2023-10-08T10:05:51;5.25;;;0.60;;
77726;SDS011;68312;53.502;10.030;2023-10-08T10:08:18;2.17;;;0.52;;
77726;SDS011;68312;53.502;10.030;2023-10-08T10:10:45;3.65;;;0.50;;
77726;SDS011;68312;53.502;10.030;2023-10-08T10:13:13;3.72;;;0.50;;
77726;SDS011;68312;53.502;10.030;2023-10-08T10:15:42;3.72;;;0.35;;
77726;SDS011;68312;53.502;10.030;2023-10-08T10:21:23;1.83;;;0.50;;
77726;SDS011;68312;53.502;10.030;2023-10-08T10:23:38;1.70;;;0.40;;
77726;SDS011;68312;53.502;10.030;2023-10-08T10:31:37;2.78;;;0.50;;
77726;SDS011;68312;53.502;10.030;2023-10-08T10:34:06;3.03;;;0.40;;
77726;SDS011;68312;53.502;10.030;2023-10-08T10:36:34;2.13;;;0.40;;
77726;SDS011;68312;53.502;10.030;2023-10-08T10:39:01;3.00;;;0.70;;
77726;SDS011;68312;53.502;10.030;2023-10-08T10:41:44;2.28;;;0.65;;
77726;SDS011;68312;53.502;10.030;2023-10-08T10:44:14;1.85;;;0.60;;
77726;SDS011;68312;53.502;10.030;2023-10-08T10:46:44;1.15;;;0.43;;
77726;SDS011;68312;53.502;10.030;2023-10-08T10:49:20;3.40;;;0.68;;
77726;SDS011;68312;53.502;10.030;2023-10-08T10:51:47;2.25;;;0.50;;
77726;SDS011;68312;53.502;10.030;2023-10-08T10:54:22;1.70;;;0.55;;
77726;SDS011;68312;53.502;10.030;2023-10-08T10:56:49;2.15;;;0.40;;
77726;SDS011;68312;53.502;10.030;2023-10-08T11:03:09;3.13;;;0.80;;
77726;SDS011;68312;53.502;10.030;2023-10-08T11:05:53;3.33;;;0.75;;
77726;SDS011;68312;53.502;10.030;2023-10-08T11:08:24;1.95;;;0.47;;
77726;SDS011;68312;53.502;10.030;2023-10-08T11:10:52;2.72;;;0.82;;
77726;SDS011;68312;53.502;10.030;2023-10-08T11:13:23;3.42;;;0.57;;
77726;SDS011;68312;53.502;10.030;2023-10-08T11:15:53;4.50;;;0.60;;
77726;SDS011;68312;53.502;10.030;2023-10-08T11:18:23;2.00;;;0.40;;
77726;SDS011;68312;53.502;10.030;2023-10-08T11:24:29;1.60;;;0.70;;
77726;SDS011;68312;53.502;10.030;2023-10-08T11:26:58;1.57;;;0.50;;
77726;SDS011;68312;53.502;10.030;2023-10-08T11:29:48;2.53;;;0.50;;
77726;SDS011;68312;53.502;10.030;2023-10-08T11:32:23;2.72;;;0.57;;
77726;SDS011;68312;53.502;10.030;2023-10-08T11:34:56;2.78;;;0.60;;
77726;SDS011;68312;53.502;10.030;2023-10-08T11:37:29;2.47;;;0.50;;
77726;SDS011;68312;53.502;10.030;2023-10-08T11:39:58;3.53;;;0.70;;
77726;SDS011;68312;53.502;10.030;2023-10-08T11:42:33;2.92;;;0.50;;
77726;SDS011;68312;53.502;10.030;2023-10-08T11:44:59;2.65;;;0.65;;
77726;SDS011;68312;53.502;10.030;2023-10-08T11:47:42;2.42;;;0.60;;
77726;SDS011;68312;53.502;10.030;2023-10-08T11:50:16;1.95;;;0.93;;
77726;SDS011;68312;53.502;10.030;2023-10-08T11:52:43;2.70;;;0.70;;
77726;SDS011;68312;53.502;10.030;2023-10-08T11:55:09;1.90;;;0.50;;
77726;SDS011;68312;53.502;10.030;2023-10-08T11:57:47;1.80;;;0.43;;
77726;SDS011;68312;53.502;10.030;2023-10-08T12:00:16;2.03;;;0.60;;
77726;SDS011;68312;53.502;10.030;2023-10-08T12:02:44;2.53;;;0.70;;
77726;SDS011;68312;53.502;10.030;2023-10-08T12:05:14;2.55;;;0.63;;
77726;SDS011;68312;53.502;10.030;2023-10-08T12:07:48;2.60;;;0.68;;
77726;SDS011;68312;53.502;10.030;2023-10-08T12:10:19;3.33;;;0.85;;
77726;SDS011;68312;53.502;10.030;2023-10-08T12:12:49;5.50;;;0.80;;
77726;SDS011;68312;53.502;10.030;2023-10-08T12:15:19;4.15;;;0.75;;
77726;SDS011;68312;53.502;10.030;2023-10-08T12:17:48;2.08;;;0.60;;
77726;SDS011;68312;53.502;10.030;2023-10-08T12:20:39;1.98;;;0.40;;
77726;SDS011;68312;53.502;10.030;2023-10-08T12:23:08;2.53;;;0.63;;
77726;SDS011;68312;53.502;10.030;2023-10-08T12:25:38;3.47;;;0.95;;
77726;SDS011;68312;53.502;10.030;2023-10-08T12:28:04;2.17;;;0.60;;
77726;SDS011;68312;53.502;10.030;2023-10-08T12:33:18;2.35;;;0.50;;
77726;SDS011;68312;53.502;10.030;2023-10-08T12:35:45;1.92;;;0.50;;
77726;SDS011;68312;53.502;10.030;2023-10-08T12:38:12;2.38;;;0.60;;
77726;SDS011;68312;53.502;10.030;2023-10-08T12:40:39;1.65;;;0.57;;
77726;SDS011;68312;53.502;10.030;2023-10-08T12:43:22;1.73;;;0.47;;
77726;SDS011;68312;53.502;10.030;2023-10-08T12:45:52;2.53;;;0.63;;
77726;SDS011;68312;53.502;10.030;2023-10-08T12:48:21;2.00;;;0.75;;
77726;SDS011;68312;53.502;10.030;2023-10-08T12:50:50;2.05;;;0.60;;
77726;SDS011;68312;53.502;10.030;2023-10-08T12:53:19;4.32;;;1.10;;
77726;SDS011;68312;53.502;10.030;2023-10-08T12:55:51;0.95;;;0.50;;
77726;SDS011;68312;53.502;10.030;2023-10-08T12:58:21;2.15;;;0.60;;
77726;SDS011;68312;53.502;10.030;2023-10-08T13:00:51;4.13;;;1.05;;
77726;SDS011;68312;53.502;10.030;2023-10-08T13:03:23;2.70;;;0.70;;
77726;SDS011;68312;53.502;10.030;2023-10-08T13:05:55;2.50;;;0.82;;
77726;SDS011;68312;53.502;10.030;2023-10-08T13:08:34;3.08;;;0.63;;
77726;SDS011;68312;53.502;10.030;2023-10-08T13:11:00;2.72;;;0.90;;
77726;SDS011;68312;53.502;10.030;2023-10-08T13:13:31;2.50;;;0.90;;
77726;SDS011;68312;53.502;10.030;2023-10-08T13:15:59;3.85;;;0.70;;
77726;SDS011;68312;53.502;10.030;2023-10-08T13:18:28;1.50;;;0.60;;
77726;SDS011;68312;53.502;10.030;2023-10-08T13:20:55;4.38;;;0.90;;
77726;SDS011;68312;53.502;10.030;2023-10-08T13:23:22;2.13;;;0.63;;
77726;SDS011;68312;53.502;10.030;2023-10-08T13:25:52;2.33;;;0.60;;
77726;SDS011;68312;53.502;10.030;2023-10-08T13:28:20;1.63;;;0.70;;
77726;SDS011;68312;53.502;10.030;2023-10-08T13:30:51;2.38;;;0.50;;
77726;SDS011;68312;53.502;10.030;2023-10-08T13:33:22;2.28;;;0.90;;
77726;SDS011;68312;53.502;10.030;2023-10-08T13:35:48;1.77;;;0.55;;
77726;SDS011;68312;53.502;10.030;2023-10-08T13:38:15;1.30;;;0.68;;
77726;SDS011;68312;53.502;10.030;2023-10-08T13:40:48;1.92;;;0.60;;
77726;SDS011;68312;53.502;10.030;2023-10-08T13:43:32;2.63;;;0.75;;
77726;SDS011;68312;53.502;10.030;2023-10-08T13:46:00;2.70;;;0.90;;
77726;SDS011;68312;53.502;10.030;2023-10-08T13:48:32;1.73;;;0.68;;
77726;SDS011;68312;53.502;10.030;2023-10-08T13:51:00;3.70;;;0.60;;
77726;SDS011;68312;53.502;10.030;2023-10-08T13:53:33;3.83;;;0.73;;
77726;SDS011;68312;53.502;10.030;2023-10-08T13:56:01;4.03;;;0.80;;
77726;SDS011;68312;53.502;10.030;2023-10-08T13:58:32;2.75;;;0.60;;
77726;SDS011;68312;53.502;10.030;2023-10-08T14:00:59;2.10;;;0.60;;
77726;SDS011;68312;53.502;10.030;2023-10-08T14:03:25;2.20;;;0.85;;
77726;SDS011;68312;53.502;10.030;2023-10-08T14:05:59;1.42;;;0.50;;
77726;SDS011;68312;53.502;10.030;2023-10-08T14:10:56;3.47;;;0.82;;
77726;SDS011;68312;53.502;10.030;2023-10-08T14:13:31;4.18;;;1.00;;
77726;SDS011;68312;53.502;10.030;2023-10-08T14:15:58;2.05;;;0.68;;
77726;SDS011;68312;53.502;10.030;2023-10-08T14:18:24;2.58;;;0.88;;
77726;SDS011;68312;53.502;10.030;2023-10-08T14:20:54;3.67;;;0.70;;
77726;SDS011;68312;53.502;10.030;2023-10-08T14:23:21;2.00;;;0.90;;
77726;SDS011;68312;53.502;10.030;2023-10-08T14:25:49;2.13;;;0.60;;
77726;SDS011;68312;53.502;10.030;2023-10-08T14:28:17;3.75;;;0.60;;
77726;SDS011;68312;53.502;10.030;2023-10-08T14:31:06;2.60;;;0.65;;
77726;SDS011;68312;53.502;10.030;2023-10-08T14:33:32;1.63;;;0.70;;
77726;SDS011;68312;53.502;10.030;2023-10-08T14:36:07;1.88;;;0.50;;
77726;SDS011;68312;53.502;10.030;2023-10-08T14:38:54;4.38;;;0.50;;
77726;SDS011;68312;53.502;10.030;2023-10-08T14:41:38;2.75;;;0.98;;
77726;SDS011;68312;53.502;10.030;2023-10-08T14:44:22;2.50;;;0.70;;
77726;SDS011;68312;53.502;10.030;2023-10-08T14:46:48;1.92;;;0.70;;
77726;SDS011;68312;53.502;10.030;2023-10-08T14:49:15;1.85;;;0.55;;
77726;SDS011;68312;53.502;10.030;2023-10-08T14:51:42;2.85;;;0.70;;
77726;SDS011;68312;53.502;10.030;2023-10-08T14:54:08;3.70;;;0.88;;
77726;SDS011;68312;53.502;10.030;2023-10-08T14:56:34;2.38;;;0.85;;
77726;SDS011;68312;53.502;10.030;2023-10-08T14:59:01;1.42;;;0.75;;
77726;SDS011;68312;53.502;10.030;2023-10-08T15:01:29;2.17;;;0.73;;
77726;SDS011;68312;53.502;10.030;2023-10-08T15:03:58;2.95;;;1.02;;
77726;SDS011;68312;53.502;10.030;2023-10-08T15:06:29;1.65;;;0.60;;
77726;SDS011;68312;53.502;10.030;2023-10-08T15:08:58;4.75;;;0.73;;
77726;SDS011;68312;53.502;10.030;2023-10-08T15:11:23;2.03;;;0.70;;
77726;SDS011;68312;53.502;10.030;2023-10-08T15:13:52;1.95;;;0.77;;
77726;SDS011;68312;53.502;10.030;2023-10-08T15:16:19;2.45;;;0.80;;
77726;SDS011;68312;53.502;10.030;2023-10-08T15:18:51;2.40;;;1.48;;
77726;SDS011;68312;53.502;10.030;2023-10-08T15:21:18;3.78;;;1.20;;
77726;SDS011;68312;53.502;10.030;2023-10-08T15:23:44;3.28;;;1.20;;
77726;SDS011;68312;53.502;10.030;2023-10-08T15:26:10;3.63;;;1.17;;
77726;SDS011;68312;53.502;10.030;2023-10-08T15:28:37;3.80;;;0.95;;
77726;SDS011;68312;53.502;10.030;2023-10-08T15:31:04;4.07;;;1.20;;
77726;SDS011;68312;53.502;10.030;2023-10-08T15:33:31;2.95;;;1.17;;
77726;SDS011;68312;53.502;10.030;2023-10-08T15:35:57;3.85;;;1.08;;
77726;SDS011;68312;53.502;10.030;2023-10-08T15:38:36;3.33;;;0.98;;